sensor_id;sensor_type;location;lat;lon;timestamp;temperature;humidity
19060;DHT22;9663;48.996;8.334;2023-05-16T00:02:06;17.90;57.20
19060;DHT22;9663;48.996;8.334;2023-05-16T00:04:31;16.80;56.70
19060;DHT22;9663;48.996;8.334;2023-05-16T00:06:57;16.80;56.70
19060;DHT22;9663;48.996;8.334;2023-05-16T00:09:23;15.40;56.10
19060;DHT22;9663;48.996;8.334;2023-05-16T00:11:49;17.00;56.90
19060;DHT22;9663;48.996;8.334;2023-05-16T00:14:15;18.30;58.30
19060;DHT22;9663;48.996;8.334;2023-05-16T00:16:41;16.80;56.90
19060;DHT22;9663;48.996;8.334;2023-05-16T00:19:07;16.80;56.90
19060;DHT22;9663;48.996;8.334;2023-05-16T00:21:33;16.90;57.00
19060;DHT22;9663;48.996;8.334;2023-05-16T00:23:58;16.80;57.00
19060;DHT22;9663;48.996;8.334;2023-05-16T00:26:24;16.80;57.00
19060;DHT22;9663;48.996;8.334;2023-05-16T00:28:50;16.70;57.00
19060;DHT22;9663;48.996;8.334;2023-05-16T00:31:16;16.70;57.10
19060;DHT22;9663;48.996;8.334;2023-05-16T00:33:41;16.70;57.20
19060;DHT22;9663;48.996;8.334;2023-05-16T00:36:07;16.80;57.30
19060;DHT22;9663;48.996;8.334;2023-05-16T00:38:33;16.80;57.40
19060;DHT22;9663;48.996;8.334;2023-05-16T00:40:59;18.00;58.00
19060;DHT22;9663;48.996;8.334;2023-05-16T00:43:24;16.40;57.30
19060;DHT22;9663;48.996;8.334;2023-05-16T00:45:50;16.80;57.50
19060;DHT22;9663;48.996;8.334;2023-05-16T00:48:16;16.80;57.50
19060;DHT22;9663;48.996;8.334;2023-05-16T00:50:43;17.10;57.70
19060;DHT22;9663;48.996;8.334;2023-05-16T00:53:08;16.20;57.20
19060;DHT22;9663;48.996;8.334;2023-05-16T00:55:35;16.80;57.50
19060;DHT22;9663;48.996;8.334;2023-05-16T00:58:04;16.80;57.60
19060;DHT22;9663;48.996;8.334;2023-05-16T01:00:30;16.50;57.60
19060;DHT22;9663;48.996;8.334;2023-05-16T01:02:56;19.10;58.80
19060;DHT22;9663;48.996;8.334;2023-05-16T01:05:21;17.40;58.00
19060;DHT22;9663;48.996;8.334;2023-05-16T01:07:47;16.70;57.70
19060;DHT22;9663;48.996;8.334;2023-05-16T01:10:14;15.20;57.00
19060;DHT22;9663;48.996;8.334;2023-05-16T01:12:55;16.70;57.80
19060;DHT22;9663;48.996;8.334;2023-05-16T01:15:34;17.00;58.00
19060;DHT22;9663;48.996;8.334;2023-05-16T01:18:28;16.80;58.10
19060;DHT22;9663;48.996;8.334;2023-05-16T01:21:05;16.40;57.90
19060;DHT22;9663;48.996;8.334;2023-05-16T01:23:50;16.70;58.00
19060;DHT22;9663;48.996;8.334;2023-05-16T01:26:26;16.60;58.00
19060;DHT22;9663;48.996;8.334;2023-05-16T01:28:53;17.00;58.00
19060;DHT22;9663;48.996;8.334;2023-05-16T01:31:20;16.50;57.70
19060;DHT22;9663;48.996;8.334;2023-05-16T01:33:47;16.40;57.80
19060;DHT22;9663;48.996;8.334;2023-05-16T01:36:39;16.50;57.90
19060;DHT22;9663;48.996;8.334;2023-05-16T01:39:40;16.50;58.60
19060;DHT22;9663;48.996;8.334;2023-05-16T01:42:13;16.40;58.90
19060;DHT22;9663;48.996;8.334;2023-05-16T01:44:42;16.40;58.10
19060;DHT22;9663;48.996;8.334;2023-05-16T01:47:13;15.40;57.50
19060;DHT22;9663;48.996;8.334;2023-05-16T01:49:57;16.40;58.00
19060;DHT22;9663;48.996;8.334;2023-05-16T01:52:59;16.50;58.60
19060;DHT22;9663;48.996;8.334;2023-05-16T01:55:41;16.40;58.80
19060;DHT22;9663;48.996;8.334;2023-05-16T01:58:10;16.30;58.10
19060;DHT22;9663;48.996;8.334;2023-05-16T02:00:39;16.40;57.90
19060;DHT22;9663;48.996;8.334;2023-05-16T02:03:05;17.10;58.20
19060;DHT22;9663;48.996;8.334;2023-05-16T02:05:31;16.40;57.90
19060;DHT22;9663;48.996;8.334;2023-05-16T02:07:58;15.30;57.40
19060;DHT22;9663;48.996;8.334;2023-05-16T02:10:25;16.40;58.00
19060;DHT22;9663;48.996;8.334;2023-05-16T02:12:52;16.00;57.70
19060;DHT22;9663;48.996;8.334;2023-05-16T02:15:17;16.40;57.90
19060;DHT22;9663;48.996;8.334;2023-05-16T02:17:43;15.30;57.30
19060;DHT22;9663;48.996;8.334;2023-05-16T02:20:10;16.90;58.00
19060;DHT22;9663;48.996;8.334;2023-05-16T02:22:37;16.50;57.70
19060;DHT22;9663;48.996;8.334;2023-05-16T02:25:13;16.40;57.80
19060;DHT22;9663;48.996;8.334;2023-05-16T02:27:39;16.40;57.70
19060;DHT22;9663;48.996;8.334;2023-05-16T02:30:06;16.90;58.00
19060;DHT22;9663;48.996;8.334;2023-05-16T02:32:32;17.10;58.10
19060;DHT22;9663;48.996;8.334;2023-05-16T02:34:58;16.40;57.70
19060;DHT22;9663;48.996;8.334;2023-05-16T02:37:24;16.40;57.70
19060;DHT22;9663;48.996;8.334;2023-05-16T02:39:50;16.50;57.70
19060;DHT22;9663;48.996;8.334;2023-05-16T02:42:16;16.40;57.70
19060;DHT22;9663;48.996;8.334;2023-05-16T02:44:41;16.50;57.70
19060;DHT22;9663;48.996;8.334;2023-05-16T02:47:07;16.40;57.70
19060;DHT22;9663;48.996;8.334;2023-05-16T02:49:33;16.40;57.70
19060;DHT22;9663;48.996;8.334;2023-05-16T02:51:58;17.00;58.00
19060;DHT22;9663;48.996;8.334;2023-05-16T02:54:24;16.40;57.70
19060;DHT22;9663;48.996;8.334;2023-05-16T02:56:50;16.40;57.70
19060;DHT22;9663;48.996;8.334;2023-05-16T02:59:15;18.60;58.80
19060;DHT22;9663;48.996;8.334;2023-05-16T03:01:41;17.40;58.20
19060;DHT22;9663;48.996;8.334;2023-05-16T03:04:06;16.30;57.70
19060;DHT22;9663;48.996;8.334;2023-05-16T03:06:32;16.30;57.80
19060;DHT22;9663;48.996;8.334;2023-05-16T03:08:58;16.40;57.80
19060;DHT22;9663;48.996;8.334;2023-05-16T03:11:23;16.30;57.70
19060;DHT22;9663;48.996;8.334;2023-05-16T03:13:51;17.20;58.10
19060;DHT22;9663;48.996;8.334;2023-05-16T03:16:16;15.60;57.40
19060;DHT22;9663;48.996;8.334;2023-05-16T03:18:42;15.00;57.20
19060;DHT22;9663;48.996;8.334;2023-05-16T03:21:08;16.40;57.80
19060;DHT22;9663;48.996;8.334;2023-05-16T03:23:35;16.30;57.80
19060;DHT22;9663;48.996;8.334;2023-05-16T03:26:01;16.30;57.90
19060;DHT22;9663;48.996;8.334;2023-05-16T03:28:27;15.20;57.40
19060;DHT22;9663;48.996;8.334;2023-05-16T03:30:52;15.00;57.40
19060;DHT22;9663;48.996;8.334;2023-05-16T03:33:18;16.20;58.00
19060;DHT22;9663;48.996;8.334;2023-05-16T03:35:44;16.30;58.00
19060;DHT22;9663;48.996;8.334;2023-05-16T03:38:11;16.20;58.00
19060;DHT22;9663;48.996;8.334;2023-05-16T03:40:38;16.10;58.00
19060;DHT22;9663;48.996;8.334;2023-05-16T03:43:04;15.20;57.40
19060;DHT22;9663;48.996;8.334;2023-05-16T03:45:30;17.10;58.40
19060;DHT22;9663;48.996;8.334;2023-05-16T03:47:56;16.20;57.90
19060;DHT22;9663;48.996;8.334;2023-05-16T03:50:22;16.20;58.00
19060;DHT22;9663;48.996;8.334;2023-05-16T03:52:48;16.10;58.00
19060;DHT22;9663;48.996;8.334;2023-05-16T03:55:13;16.10;58.00
19060;DHT22;9663;48.996;8.334;2023-05-16T03:57:40;16.10;58.00
19060;DHT22;9663;48.996;8.334;2023-05-16T04:00:07;16.20;58.10
19060;DHT22;9663;48.996;8.334;2023-05-16T04:02:35;16.10;57.90
19060;DHT22;9663;48.996;8.334;2023-05-16T04:05:00;16.10;58.00
19060;DHT22;9663;48.996;8.334;2023-05-16T04:07:27;16.10;57.90
19060;DHT22;9663;48.996;8.334;2023-05-16T04:09:54;16.00;57.90
19060;DHT22;9663;48.996;8.334;2023-05-16T04:12:20;14.70;57.40
19060;DHT22;9663;48.996;8.334;2023-05-16T04:14:47;16.90;58.50
19060;DHT22;9663;48.996;8.334;2023-05-16T04:17:13;16.80;58.40
19060;DHT22;9663;48.996;8.334;2023-05-16T04:19:39;15.90;57.90
19060;DHT22;9663;48.996;8.334;2023-05-16T04:22:05;16.10;58.00
19060;DHT22;9663;48.996;8.334;2023-05-16T04:24:30;16.00;58.00
19060;DHT22;9663;48.996;8.334;2023-05-16T04:26:56;16.00;57.90
19060;DHT22;9663;48.996;8.334;2023-05-16T04:29:22;16.00;57.90
19060;DHT22;9663;48.996;8.334;2023-05-16T04:31:47;16.00;58.00
19060;DHT22;9663;48.996;8.334;2023-05-16T04:34:13;16.00;58.00
19060;DHT22;9663;48.996;8.334;2023-05-16T04:36:40;16.00;58.10
19060;DHT22;9663;48.996;8.334;2023-05-16T04:39:06;15.90;58.10
19060;DHT22;9663;48.996;8.334;2023-05-16T04:41:33;16.00;58.20
19060;DHT22;9663;48.996;8.334;2023-05-16T04:44:03;15.20;57.80
19060;DHT22;9663;48.996;8.334;2023-05-16T04:46:29;16.00;58.20
19060;DHT22;9663;48.996;8.334;2023-05-16T04:48:55;15.90;58.20
19060;DHT22;9663;48.996;8.334;2023-05-16T04:51:21;16.50;58.40
19060;DHT22;9663;48.996;8.334;2023-05-16T04:53:47;15.90;58.10
19060;DHT22;9663;48.996;8.334;2023-05-16T04:56:12;16.50;58.50
19060;DHT22;9663;48.996;8.334;2023-05-16T04:58:38;16.40;58.40
19060;DHT22;9663;48.996;8.334;2023-05-16T05:01:04;16.90;58.70
19060;DHT22;9663;48.996;8.334;2023-05-16T05:03:29;15.90;58.30
19060;DHT22;9663;48.996;8.334;2023-05-16T05:05:55;16.00;58.30
19060;DHT22;9663;48.996;8.334;2023-05-16T05:08:21;15.80;58.20
19060;DHT22;9663;48.996;8.334;2023-05-16T05:10:47;16.00;58.30
19060;DHT22;9663;48.996;8.334;2023-05-16T05:13:13;17.10;58.80
19060;DHT22;9663;48.996;8.334;2023-05-16T05:15:39;16.10;58.30
19060;DHT22;9663;48.996;8.334;2023-05-16T05:18:04;16.10;58.30
19060;DHT22;9663;48.996;8.334;2023-05-16T05:20:30;16.00;58.30
19060;DHT22;9663;48.996;8.334;2023-05-16T05:22:56;16.10;58.30
19060;DHT22;9663;48.996;8.334;2023-05-16T05:25:22;16.10;58.20
19060;DHT22;9663;48.996;8.334;2023-05-16T05:27:48;16.10;58.20
19060;DHT22;9663;48.996;8.334;2023-05-16T05:30:14;16.10;58.30
19060;DHT22;9663;48.996;8.334;2023-05-16T05:32:40;16.10;58.40
19060;DHT22;9663;48.996;8.334;2023-05-16T05:35:06;16.10;58.30
19060;DHT22;9663;48.996;8.334;2023-05-16T05:37:32;16.20;58.30
19060;DHT22;9663;48.996;8.334;2023-05-16T05:39:58;16.00;58.20
19060;DHT22;9663;48.996;8.334;2023-05-16T05:42:24;16.40;58.30
19060;DHT22;9663;48.996;8.334;2023-05-16T05:44:50;16.10;58.20
19060;DHT22;9663;48.996;8.334;2023-05-16T05:47:15;16.00;58.20
19060;DHT22;9663;48.996;8.334;2023-05-16T05:49:41;16.00;58.20
19060;DHT22;9663;48.996;8.334;2023-05-16T05:52:08;16.10;58.90
19060;DHT22;9663;48.996;8.334;2023-05-16T05:54:34;15.00;57.70
19060;DHT22;9663;48.996;8.334;2023-05-16T05:56:59;15.00;57.70
19060;DHT22;9663;48.996;8.334;2023-05-16T05:59:25;16.20;58.50
19060;DHT22;9663;48.996;8.334;2023-05-16T06:01:51;16.20;58.30
19060;DHT22;9663;48.996;8.334;2023-05-16T06:04:18;16.10;58.20
19060;DHT22;9663;48.996;8.334;2023-05-16T06:06:44;16.10;58.30
19060;DHT22;9663;48.996;8.334;2023-05-16T06:09:10;16.10;58.20
19060;DHT22;9663;48.996;8.334;2023-05-16T06:11:38;16.10;58.20
19060;DHT22;9663;48.996;8.334;2023-05-16T06:14:04;16.10;58.20
19060;DHT22;9663;48.996;8.334;2023-05-16T06:16:30;16.30;58.30
19060;DHT22;9663;48.996;8.334;2023-05-16T06:18:55;16.20;58.30
19060;DHT22;9663;48.996;8.334;2023-05-16T06:21:21;16.20;58.30
19060;DHT22;9663;48.996;8.334;2023-05-16T06:23:47;17.60;59.00
19060;DHT22;9663;48.996;8.334;2023-05-16T06:26:13;15.20;57.70
19060;DHT22;9663;48.996;8.334;2023-05-16T06:28:40;16.30;58.10
19060;DHT22;9663;48.996;8.334;2023-05-16T06:31:05;16.40;58.40
19060;DHT22;9663;48.996;8.334;2023-05-16T06:33:31;16.10;58.00
19060;DHT22;9663;48.996;8.334;2023-05-16T06:35:57;17.90;58.90
19060;DHT22;9663;48.996;8.334;2023-05-16T06:38:23;16.40;58.00
19060;DHT22;9663;48.996;8.334;2023-05-16T06:40:49;16.50;58.20
19060;DHT22;9663;48.996;8.334;2023-05-16T06:43:15;17.50;58.50
19060;DHT22;9663;48.996;8.334;2023-05-16T06:45:40;17.90;58.70
19060;DHT22;9663;48.996;8.334;2023-05-16T06:48:07;16.50;58.00
19060;DHT22;9663;48.996;8.334;2023-05-16T06:50:33;16.50;58.00
19060;DHT22;9663;48.996;8.334;2023-05-16T06:53:00;16.50;57.90
19060;DHT22;9663;48.996;8.334;2023-05-16T06:55:26;16.40;57.80
19060;DHT22;9663;48.996;8.334;2023-05-16T06:57:52;15.00;57.00
19060;DHT22;9663;48.996;8.334;2023-05-16T07:00:18;16.40;57.80
19060;DHT22;9663;48.996;8.334;2023-05-16T07:02:44;16.40;57.70
19060;DHT22;9663;48.996;8.334;2023-05-16T07:05:09;16.30;57.80
19060;DHT22;9663;48.996;8.334;2023-05-16T07:07:35;16.40;57.80
19060;DHT22;9663;48.996;8.334;2023-05-16T07:10:02;16.30;57.80
19060;DHT22;9663;48.996;8.334;2023-05-16T07:12:28;16.50;58.00
19060;DHT22;9663;48.996;8.334;2023-05-16T07:14:54;17.70;58.50
19060;DHT22;9663;48.996;8.334;2023-05-16T07:17:20;16.30;57.70
19060;DHT22;9663;48.996;8.334;2023-05-16T07:19:46;16.70;58.00
19060;DHT22;9663;48.996;8.334;2023-05-16T07:22:12;16.20;57.70
19060;DHT22;9663;48.996;8.334;2023-05-16T07:24:37;16.30;57.70
19060;DHT22;9663;48.996;8.334;2023-05-16T07:27:03;16.20;57.70
19060;DHT22;9663;48.996;8.334;2023-05-16T07:29:29;16.20;57.70
19060;DHT22;9663;48.996;8.334;2023-05-16T07:31:55;16.20;57.80
19060;DHT22;9663;48.996;8.334;2023-05-16T07:34:20;17.30;58.30
19060;DHT22;9663;48.996;8.334;2023-05-16T07:36:46;16.30;57.80
19060;DHT22;9663;48.996;8.334;2023-05-16T07:39:12;16.40;57.80
19060;DHT22;9663;48.996;8.334;2023-05-16T07:41:38;17.30;58.20
19060;DHT22;9663;48.996;8.334;2023-05-16T07:44:04;16.40;57.70
19060;DHT22;9663;48.996;8.334;2023-05-16T07:46:30;16.40;57.70
19060;DHT22;9663;48.996;8.334;2023-05-16T07:48:55;18.20;58.60
19060;DHT22;9663;48.996;8.334;2023-05-16T07:51:21;16.50;57.70
19060;DHT22;9663;48.996;8.334;2023-05-16T07:53:47;16.60;57.80
19060;DHT22;9663;48.996;8.334;2023-05-16T07:56:12;16.70;57.80
19060;DHT22;9663;48.996;8.334;2023-05-16T07:58:38;17.50;58.10
19060;DHT22;9663;48.996;8.334;2023-05-16T08:01:04;16.70;57.60
19060;DHT22;9663;48.996;8.334;2023-05-16T08:03:30;16.70;57.50
19060;DHT22;9663;48.996;8.334;2023-05-16T08:05:56;16.70;57.50
19060;DHT22;9663;48.996;8.334;2023-05-16T08:08:21;15.30;56.90
19060;DHT22;9663;48.996;8.334;2023-05-16T08:10:47;16.80;57.60
19060;DHT22;9663;48.996;8.334;2023-05-16T08:13:12;16.80;57.60
19060;DHT22;9663;48.996;8.334;2023-05-16T08:15:38;16.70;57.50
19060;DHT22;9663;48.996;8.334;2023-05-16T08:18:12;16.40;57.30
19060;DHT22;9663;48.996;8.334;2023-05-16T08:20:39;16.80;57.40
19060;DHT22;9663;48.996;8.334;2023-05-16T08:23:06;16.90;57.50
19060;DHT22;9663;48.996;8.334;2023-05-16T08:25:33;17.20;57.50
19060;DHT22;9663;48.996;8.334;2023-05-16T08:27:58;16.70;57.30
19060;DHT22;9663;48.996;8.334;2023-05-16T08:30:26;16.80;57.30
19060;DHT22;9663;48.996;8.334;2023-05-16T08:32:52;16.80;57.30
19060;DHT22;9663;48.996;8.334;2023-05-16T08:35:18;16.90;57.40
19060;DHT22;9663;48.996;8.334;2023-05-16T08:37:43;16.90;57.30
19060;DHT22;9663;48.996;8.334;2023-05-16T08:40:10;16.90;57.30
19060;DHT22;9663;48.996;8.334;2023-05-16T08:42:37;16.80;57.30
19060;DHT22;9663;48.996;8.334;2023-05-16T08:45:04;15.70;56.70
19060;DHT22;9663;48.996;8.334;2023-05-16T08:47:32;16.90;57.20
19060;DHT22;9663;48.996;8.334;2023-05-16T08:50:02;16.90;57.10
19060;DHT22;9663;48.996;8.334;2023-05-16T08:52:30;16.90;57.00
19060;DHT22;9663;48.996;8.334;2023-05-16T08:55:01;17.00;57.10
19060;DHT22;9663;48.996;8.334;2023-05-16T08:57:32;16.90;57.20
19060;DHT22;9663;48.996;8.334;2023-05-16T08:59:59;17.00;57.30
19060;DHT22;9663;48.996;8.334;2023-05-16T09:02:26;16.90;57.10
19060;DHT22;9663;48.996;8.334;2023-05-16T09:04:54;17.00;57.20
19060;DHT22;9663;48.996;8.334;2023-05-16T09:07:21;17.10;57.20
19060;DHT22;9663;48.996;8.334;2023-05-16T09:09:48;17.00;57.30
19060;DHT22;9663;48.996;8.334;2023-05-16T09:12:13;17.20;57.30
19060;DHT22;9663;48.996;8.334;2023-05-16T09:14:39;18.40;57.70
19060;DHT22;9663;48.996;8.334;2023-05-16T09:17:06;17.10;56.90
19060;DHT22;9663;48.996;8.334;2023-05-16T09:19:40;17.60;57.10
19060;DHT22;9663;48.996;8.334;2023-05-16T09:22:14;17.30;56.80
19060;DHT22;9663;48.996;8.334;2023-05-16T09:24:44;17.30;56.70
19060;DHT22;9663;48.996;8.334;2023-05-16T09:27:12;15.60;55.70
19060;DHT22;9663;48.996;8.334;2023-05-16T09:29:40;16.50;56.20
19060;DHT22;9663;48.996;8.334;2023-05-16T09:32:12;17.10;56.60
19060;DHT22;9663;48.996;8.334;2023-05-16T09:34:48;16.60;56.30
19060;DHT22;9663;48.996;8.334;2023-05-16T09:37:16;17.00;56.50
19060;DHT22;9663;48.996;8.334;2023-05-16T09:39:47;17.10;57.30
19060;DHT22;9663;48.996;8.334;2023-05-16T09:42:18;16.20;56.30
19060;DHT22;9663;48.996;8.334;2023-05-16T09:44:53;17.10;56.80
19060;DHT22;9663;48.996;8.334;2023-05-16T09:47:21;17.10;56.50
19060;DHT22;9663;48.996;8.334;2023-05-16T09:49:51;17.10;56.50
19060;DHT22;9663;48.996;8.334;2023-05-16T09:52:18;17.00;56.50
19060;DHT22;9663;48.996;8.334;2023-05-16T09:54:45;17.10;56.60
19060;DHT22;9663;48.996;8.334;2023-05-16T09:57:20;17.00;56.70
19060;DHT22;9663;48.996;8.334;2023-05-16T09:59:48;17.00;57.50
19060;DHT22;9663;48.996;8.334;2023-05-16T10:02:14;17.10;57.10
19060;DHT22;9663;48.996;8.334;2023-05-16T10:04:41;17.20;58.00
19060;DHT22;9663;48.996;8.334;2023-05-16T10:07:07;17.30;57.40
19060;DHT22;9663;48.996;8.334;2023-05-16T10:09:35;17.80;57.70
19060;DHT22;9663;48.996;8.334;2023-05-16T10:12:02;16.50;56.90
19060;DHT22;9663;48.996;8.334;2023-05-16T10:14:36;18.10;57.40
19060;DHT22;9663;48.996;8.334;2023-05-16T10:17:05;18.40;57.00
19060;DHT22;9663;48.996;8.334;2023-05-16T10:19:35;18.60;56.70
19060;DHT22;9663;48.996;8.334;2023-05-16T10:22:05;19.20;56.00
19060;DHT22;9663;48.996;8.334;2023-05-16T10:24:50;18.90;55.50
19060;DHT22;9663;48.996;8.334;2023-05-16T10:27:42;18.90;54.80
19060;DHT22;9663;48.996;8.334;2023-05-16T10:30:09;18.90;55.10
19060;DHT22;9663;48.996;8.334;2023-05-16T10:32:36;17.50;54.20
19060;DHT22;9663;48.996;8.334;2023-05-16T10:35:03;18.80;54.70
19060;DHT22;9663;48.996;8.334;2023-05-16T10:37:30;18.90;54.60
19060;DHT22;9663;48.996;8.334;2023-05-16T10:40:01;18.70;54.60
19060;DHT22;9663;48.996;8.334;2023-05-16T10:42:31;18.70;54.60
19060;DHT22;9663;48.996;8.334;2023-05-16T10:45:18;18.60;54.60
19060;DHT22;9663;48.996;8.334;2023-05-16T10:47:58;18.60;54.50
19060;DHT22;9663;48.996;8.334;2023-05-16T10:53:24;18.30;54.10
19060;DHT22;9663;48.996;8.334;2023-05-16T11:06:52;17.90;54.20
19060;DHT22;9663;48.996;8.334;2023-05-16T11:09:21;17.60;54.30
19060;DHT22;9663;48.996;8.334;2023-05-16T11:12:02;17.60;54.80
19060;DHT22;9663;48.996;8.334;2023-05-16T11:25:08;18.20;55.50
19060;DHT22;9663;48.996;8.334;2023-05-16T11:27:46;17.90;54.80
19060;DHT22;9663;48.996;8.334;2023-05-16T11:30:14;17.90;55.00
19060;DHT22;9663;48.996;8.334;2023-05-16T11:32:44;17.90;54.80
19060;DHT22;9663;48.996;8.334;2023-05-16T11:35:13;17.10;54.10
19060;DHT22;9663;48.996;8.334;2023-05-16T11:37:42;17.90;54.40
19060;DHT22;9663;48.996;8.334;2023-05-16T11:40:10;17.80;54.30
19060;DHT22;9663;48.996;8.334;2023-05-16T11:42:41;17.70;54.30
19060;DHT22;9663;48.996;8.334;2023-05-16T11:45:14;16.30;53.70
19060;DHT22;9663;48.996;8.334;2023-05-16T11:47:44;17.60;54.50
19060;DHT22;9663;48.996;8.334;2023-05-16T11:50:15;17.90;54.70
19060;DHT22;9663;48.996;8.334;2023-05-16T11:52:53;17.60;54.60
19060;DHT22;9663;48.996;8.334;2023-05-16T11:55:26;17.50;54.70
19060;DHT22;9663;48.996;8.334;2023-05-16T11:57:56;17.90;55.00
19060;DHT22;9663;48.996;8.334;2023-05-16T12:00:24;17.60;55.00
19060;DHT22;9663;48.996;8.334;2023-05-16T12:02:53;17.70;55.20
19060;DHT22;9663;48.996;8.334;2023-05-16T12:05:20;19.10;55.80
19060;DHT22;9663;48.996;8.334;2023-05-16T12:07:50;17.90;55.00
19060;DHT22;9663;48.996;8.334;2023-05-16T12:10:18;19.70;55.90
19060;DHT22;9663;48.996;8.334;2023-05-16T12:12:47;18.10;54.60
19060;DHT22;9663;48.996;8.334;2023-05-16T12:15:17;18.20;54.50
19060;DHT22;9663;48.996;8.334;2023-05-16T12:17:44;17.40;53.90
19060;DHT22;9663;48.996;8.334;2023-05-16T12:20:12;18.20;54.10
19060;DHT22;9663;48.996;8.334;2023-05-16T12:22:42;18.10;53.90
19060;DHT22;9663;48.996;8.334;2023-05-16T12:25:25;18.40;54.10
19060;DHT22;9663;48.996;8.334;2023-05-16T12:28:01;17.20;53.30
19060;DHT22;9663;48.996;8.334;2023-05-16T12:30:29;17.60;53.90
19060;DHT22;9663;48.996;8.334;2023-05-16T12:33:00;19.00;54.60
19060;DHT22;9663;48.996;8.334;2023-05-16T12:35:33;19.70;55.00
19060;DHT22;9663;48.996;8.334;2023-05-16T12:38:04;17.60;54.10
19060;DHT22;9663;48.996;8.334;2023-05-16T12:40:31;17.60;54.10
19060;DHT22;9663;48.996;8.334;2023-05-16T12:42:57;17.70;54.30
19060;DHT22;9663;48.996;8.334;2023-05-16T12:45:23;17.60;54.30
19060;DHT22;9663;48.996;8.334;2023-05-16T12:47:51;17.60;54.40
19060;DHT22;9663;48.996;8.334;2023-05-16T12:50:17;17.80;54.80
19060;DHT22;9663;48.996;8.334;2023-05-16T12:52:50;17.70;54.60
19060;DHT22;9663;48.996;8.334;2023-05-16T12:55:18;17.70;54.10
19060;DHT22;9663;48.996;8.334;2023-05-16T12:57:46;18.20;54.30
19060;DHT22;9663;48.996;8.334;2023-05-16T13:00:14;15.90;53.20
19060;DHT22;9663;48.996;8.334;2023-05-16T13:02:41;17.70;54.10
19060;DHT22;9663;48.996;8.334;2023-05-16T13:05:07;17.60;54.30
19060;DHT22;9663;48.996;8.334;2023-05-16T13:07:33;16.30;53.60
19060;DHT22;9663;48.996;8.334;2023-05-16T13:09:59;17.80;54.20
19060;DHT22;9663;48.996;8.334;2023-05-16T13:12:25;17.40;53.90
19060;DHT22;9663;48.996;8.334;2023-05-16T13:14:54;18.00;54.10
19060;DHT22;9663;48.996;8.334;2023-05-16T13:17:20;18.10;53.70
19060;DHT22;9663;48.996;8.334;2023-05-16T13:19:48;18.00;53.80
19060;DHT22;9663;48.996;8.334;2023-05-16T13:22:14;18.10;53.70
19060;DHT22;9663;48.996;8.334;2023-05-16T13:24:40;18.10;53.50
19060;DHT22;9663;48.996;8.334;2023-05-16T13:27:07;18.10;53.40
19060;DHT22;9663;48.996;8.334;2023-05-16T13:29:32;17.90;53.00
19060;DHT22;9663;48.996;8.334;2023-05-16T13:31:58;18.00;53.10
19060;DHT22;9663;48.996;8.334;2023-05-16T13:34:24;19.50;53.80
19060;DHT22;9663;48.996;8.334;2023-05-16T13:36:49;18.70;53.30
19060;DHT22;9663;48.996;8.334;2023-05-16T13:39:16;18.00;53.00
19060;DHT22;9663;48.996;8.334;2023-05-16T13:41:42;17.60;52.90
19060;DHT22;9663;48.996;8.334;2023-05-16T13:44:08;18.30;53.20
19060;DHT22;9663;48.996;8.334;2023-05-16T13:46:34;17.70;53.10
19060;DHT22;9663;48.996;8.334;2023-05-16T13:49:00;17.60;52.80
19060;DHT22;9663;48.996;8.334;2023-05-16T13:51:26;17.60;52.70
19060;DHT22;9663;48.996;8.334;2023-05-16T13:53:51;17.60;52.50
19060;DHT22;9663;48.996;8.334;2023-05-16T13:56:17;17.20;52.10
19060;DHT22;9663;48.996;8.334;2023-05-16T13:58:43;17.60;52.40
19060;DHT22;9663;48.996;8.334;2023-05-16T14:01:08;17.50;52.50
19060;DHT22;9663;48.996;8.334;2023-05-16T14:03:34;17.50;52.70
19060;DHT22;9663;48.996;8.334;2023-05-16T14:06:02;17.90;52.70
19060;DHT22;9663;48.996;8.334;2023-05-16T14:08:28;17.60;52.60
19060;DHT22;9663;48.996;8.334;2023-05-16T14:10:54;18.20;52.90
19060;DHT22;9663;48.996;8.334;2023-05-16T14:13:20;16.50;52.10
19060;DHT22;9663;48.996;8.334;2023-05-16T14:15:46;17.70;52.50
19060;DHT22;9663;48.996;8.334;2023-05-16T14:18:11;18.10;52.70
19060;DHT22;9663;48.996;8.334;2023-05-16T14:20:38;18.00;52.70
19060;DHT22;9663;48.996;8.334;2023-05-16T14:23:04;18.10;52.80
19060;DHT22;9663;48.996;8.334;2023-05-16T14:25:29;16.80;52.20
19060;DHT22;9663;48.996;8.334;2023-05-16T14:27:56;18.40;52.60
19060;DHT22;9663;48.996;8.334;2023-05-16T14:30:21;18.70;52.20
19060;DHT22;9663;48.996;8.334;2023-05-16T14:32:47;18.90;51.50
19060;DHT22;9663;48.996;8.334;2023-05-16T14:35:13;19.00;51.40
19060;DHT22;9663;48.996;8.334;2023-05-16T14:37:39;19.90;51.70
19060;DHT22;9663;48.996;8.334;2023-05-16T14:40:05;19.40;51.30
19060;DHT22;9663;48.996;8.334;2023-05-16T14:42:33;19.70;50.70
19060;DHT22;9663;48.996;8.334;2023-05-16T14:44:59;19.60;50.60
19060;DHT22;9663;48.996;8.334;2023-05-16T14:47:25;19.90;50.60
19060;DHT22;9663;48.996;8.334;2023-05-16T14:49:52;20.00;50.40
19060;DHT22;9663;48.996;8.334;2023-05-16T14:52:19;20.00;50.30
19060;DHT22;9663;48.996;8.334;2023-05-16T14:54:45;20.10;50.20
19060;DHT22;9663;48.996;8.334;2023-05-16T14:57:10;20.00;49.80
19060;DHT22;9663;48.996;8.334;2023-05-16T14:59:36;20.30;50.30
19060;DHT22;9663;48.996;8.334;2023-05-16T15:02:02;20.50;50.20
19060;DHT22;9663;48.996;8.334;2023-05-16T15:04:28;20.70;50.00
19060;DHT22;9663;48.996;8.334;2023-05-16T15:06:54;20.60;49.50
19060;DHT22;9663;48.996;8.334;2023-05-16T15:09:20;20.80;49.00
19060;DHT22;9663;48.996;8.334;2023-05-16T15:11:46;20.80;48.70
19060;DHT22;9663;48.996;8.334;2023-05-16T15:14:12;20.70;48.50
19060;DHT22;9663;48.996;8.334;2023-05-16T15:16:37;20.70;48.30
19060;DHT22;9663;48.996;8.334;2023-05-16T15:19:03;20.50;47.80
19060;DHT22;9663;48.996;8.334;2023-05-16T15:21:29;20.40;47.70
19060;DHT22;9663;48.996;8.334;2023-05-16T15:23:56;20.40;48.30
19060;DHT22;9663;48.996;8.334;2023-05-16T15:26:22;20.50;48.70
19060;DHT22;9663;48.996;8.334;2023-05-16T15:28:49;19.60;48.30
19060;DHT22;9663;48.996;8.334;2023-05-16T15:31:15;20.20;48.70
19060;DHT22;9663;48.996;8.334;2023-05-16T15:33:40;20.10;48.60
19060;DHT22;9663;48.996;8.334;2023-05-16T15:36:06;20.10;48.10
19060;DHT22;9663;48.996;8.334;2023-05-16T15:38:32;18.50;47.90
19060;DHT22;9663;48.996;8.334;2023-05-16T15:40:58;20.10;48.80
19060;DHT22;9663;48.996;8.334;2023-05-16T15:43:23;20.10;48.70
19060;DHT22;9663;48.996;8.334;2023-05-16T15:45:49;20.00;48.70
19060;DHT22;9663;48.996;8.334;2023-05-16T15:48:15;19.30;48.40
19060;DHT22;9663;48.996;8.334;2023-05-16T15:50:40;20.50;49.00
19060;DHT22;9663;48.996;8.334;2023-05-16T15:53:07;19.10;48.20
19060;DHT22;9663;48.996;8.334;2023-05-16T15:55:33;20.20;47.60
19060;DHT22;9663;48.996;8.334;2023-05-16T15:57:59;20.40;48.40
19060;DHT22;9663;48.996;8.334;2023-05-16T16:00:27;20.60;48.60
19060;DHT22;9663;48.996;8.334;2023-05-16T16:02:53;19.70;48.00
19060;DHT22;9663;48.996;8.334;2023-05-16T16:05:19;20.80;48.30
19060;DHT22;9663;48.996;8.334;2023-05-16T16:07:44;20.80;48.20
19060;DHT22;9663;48.996;8.334;2023-05-16T16:10:10;21.30;47.50
19060;DHT22;9663;48.996;8.334;2023-05-16T16:12:36;21.30;47.50